Time;durP1;ratioP1;P1;durP2;ratioP2;P2;SDS_P1;SDS_P2;PMS_P1;PMS_P2;Temp;Humidity;BMP_temperature;BMP_pressure;BME280_temperature;BME280_humidity;BME280_pressure;Samples;Min_cycle;Max_cycle;Signal;HPM_P1;HPM_P2
2023/12/08 00:00:14;;;;;;;55.97;3.03;;;;;;;;;;5093323;28;20227;-71
2023/12/08 00:02:41;;;;;;;56.10;3.13;;;;;;;;;;5093290;28;20231;-71
2023/12/08 00:05:10;;;;;;;55.80;2.63;;;;;;;;;;5093068;28;20761;-71
2023/12/08 00:07:37;;;;;;;55.85;2.85;;;;;;;;;;5093085;28;20766;-71
2023/12/08 00:10:04;;;;;;;56.28;3.45;;;;;;;;;;5093478;28;20220;-71
2023/12/08 00:12:31;;;;;;;55.90;2.70;;;;;;;;;;5092967;28;20222;-71
2023/12/08 00:14:58;;;;;;;57.95;3.03;;;;;;;;;;5092965;28;20212;-71
2023/12/08 00:17:27;;;;;;;55.90;2.97;;;;;;;;;;5093076;28;20213;-71
2023/12/08 00:19:54;;;;;;;57.17;3.55;;;;;;;;;;5093162;28;20573;-71
2023/12/08 00:22:21;;;;;;;55.88;2.50;;;;;;;;;;5092974;28;20221;-71
2023/12/08 00:24:49;;;;;;;56.20;3.00;;;;;;;;;;5092961;28;20209;-71
2023/12/08 00:27:16;;;;;;;55.78;2.70;;;;;;;;;;5092749;28;20307;-71
2023/12/08 00:29:44;;;;;;;55.88;2.50;;;;;;;;;;5092757;28;20206;-71
2023/12/08 00:32:11;;;;;;;57.20;3.88;;;;;;;;;;5092323;28;20253;-71
2023/12/08 00:34:40;;;;;;;55.95;2.40;;;;;;;;;;5092624;28;20577;-71
2023/12/08 00:37:08;;;;;;;55.80;2.78;;;;;;;;;;5092891;28;20198;-71
2023/12/08 00:39:35;;;;;;;55.97;2.70;;;;;;;;;;5093271;28;20218;-71
2023/12/08 00:42:02;;;;;;;55.97;2.30;;;;;;;;;;5092761;28;20223;-71
2023/12/08 00:44:29;;;;;;;56.10;3.13;;;;;;;;;;5092310;28;20700;-71
2023/12/08 00:46:56;;;;;;;56.58;3.03;;;;;;;;;;5092584;28;20209;-71
2023/12/08 00:49:23;;;;;;;55.88;2.60;;;;;;;;;;5092530;28;20209;-71
2023/12/08 00:51:52;;;;;;;56.00;2.95;;;;;;;;;;5092355;28;20212;-71
2023/12/08 00:54:19;;;;;;;56.38;3.85;;;;;;;;;;5092273;28;20580;-68
2023/12/08 00:56:47;;;;;;;55.88;2.35;;;;;;;;;;5091599;28;20220;-71
2023/12/08 00:59:14;;;;;;;55.75;2.70;;;;;;;;;;5092118;28;20209;-71
2023/12/08 01:01:41;;;;;;;58.15;3.50;;;;;;;;;;5092401;28;20205;-71
2023/12/08 01:04:08;;;;;;;56.30;3.00;;;;;;;;;;5092062;28;20226;-71
2023/12/08 01:06:35;;;;;;;55.80;2.30;;;;;;;;;;5091837;28;20214;-71
2023/12/08 01:09:03;;;;;;;57.30;3.47;;;;;;;;;;5091965;28;20729;-71
2023/12/08 01:11:31;;;;;;;56.08;2.40;;;;;;;;;;5091888;28;20206;-71
2023/12/08 01:13:58;;;;;;;56.08;2.90;;;;;;;;;;5091743;28;20284;-71
2023/12/08 01:16:25;;;;;;;55.67;2.30;;;;;;;;;;5091647;28;20210;-70
2023/12/08 01:18:52;;;;;;;57.95;3.05;;;;;;;;;;5092099;28;20202;-71
2023/12/08 01:21:19;;;;;;;55.75;2.20;;;;;;;;;;5091527;28;20786;-71
2023/12/08 01:23:46;;;;;;;55.88;2.50;;;;;;;;;;5091717;28;20238;-71
2023/12/08 01:26:14;;;;;;;55.97;3.05;;;;;;;;;;5091386;28;20212;-71
2023/12/08 01:28:42;;;;;;;56.33;3.28;;;;;;;;;;5092025;28;20225;-71
2023/12/08 01:31:09;;;;;;;57.85;3.13;;;;;;;;;;5091649;28;20559;-71
2023/12/08 01:33:36;;;;;;;55.78;2.40;;;;;;;;;;5091496;28;20251;-71
2023/12/08 01:36:03;;;;;;;55.97;2.88;;;;;;;;;;5091530;28;20492;-71
2023/12/08 01:38:30;;;;;;;55.90;2.50;;;;;;;;;;5091534;28;20202;-71
2023/12/08 01:40:57;;;;;;;56.00;2.90;;;;;;;;;;5091318;28;20208;-71
2023/12/08 01:43:26;;;;;;;55.90;2.60;;;;;;;;;;5091451;28;20575;-71
2023/12/08 01:45:53;;;;;;;57.05;3.88;;;;;;;;;;5091335;28;20287;-71
2023/12/08 01:48:20;;;;;;;56.13;3.03;;;;;;;;;;5091174;28;20226;-71
2023/12/08 01:50:48;;;;;;;56.25;3.47;;;;;;;;;;5091277;28;20586;-71
2023/12/08 01:53:15;;;;;;;56.08;2.67;;;;;;;;;;5090938;28;20222;-71
2023/12/08 01:55:42;;;;;;;55.80;2.58;;;;;;;;;;5090839;28;20212;-71
2023/12/08 01:58:09;;;;;;;56.00;3.22;;;;;;;;;;5091751;28;20203;-71
2023/12/08 02:00:38;;;;;;;56.28;3.30;;;;;;;;;;5091498;28;20206;-71
2023/12/08 02:03:05;;;;;;;56.10;2.90;;;;;;;;;;5091110;28;20324;-71
2023/12/08 02:05:32;;;;;;;55.90;2.40;;;;;;;;;;5090902;28;20205;-71
2023/12/08 02:08:00;;;;;;;56.10;2.78;;;;;;;;;;5091130;28;20688;-71
2023/12/08 02:10:27;;;;;;;55.97;2.50;;;;;;;;;;5091145;28;20198;-71
2023/12/08 02:12:54;;;;;;;55.80;2.60;;;;;;;;;;5090872;28;20605;-71
2023/12/08 02:15:22;;;;;;;55.80;2.53;;;;;;;;;;5090637;28;20225;-71
2023/12/08 02:17:50;;;;;;;55.58;2.50;;;;;;;;;;5090923;28;20204;-71
2023/12/08 02:20:18;;;;;;;57.53;3.70;;;;;;;;;;5090879;28;20576;-71
2023/12/08 02:22:45;;;;;;;55.88;2.47;;;;;;;;;;5090990;28;20221;-71
2023/12/08 02:25:13;;;;;;;55.88;2.92;;;;;;;;;;5090951;28;20201;-71
2023/12/08 02:27:40;;;;;;;56.88;3.20;;;;;;;;;;5090483;28;20222;-71
2023/12/08 02:30:09;;;;;;;56.08;2.85;;;;;;;;;;5090828;28;20198;-71
2023/12/08 02:32:40;;;;;;;56.05;2.75;;;;;;;;;;5090769;28;20221;-71
2023/12/08 02:35:08;;;;;;;55.90;2.53;;;;;;;;;;5090506;28;20205;-71
2023/12/08 02:37:37;;;;;;;56.40;3.13;;;;;;;;;;5090603;28;20206;-69
2023/12/08 02:40:05;;;;;;;55.90;2.50;;;;;;;;;;5090837;28;20208;-69
2023/12/08 02:42:33;;;;;;;56.00;2.70;;;;;;;;;;5090288;28;20745;-69
2023/12/08 02:45:00;;;;;;;55.70;2.40;;;;;;;;;;5090797;28;20207;-71
2023/12/08 02:47:27;;;;;;;55.88;2.75;;;;;;;;;;5090752;28;20534;-70
2023/12/08 02:49:54;;;;;;;55.90;2.65;;;;;;;;;;5090597;28;20206;-69
2023/12/08 02:52:21;;;;;;;56.10;3.28;;;;;;;;;;5090139;28;20585;-69
2023/12/08 02:54:49;;;;;;;56.10;3.30;;;;;;;;;;5090552;28;20286;-70
2023/12/08 02:57:16;;;;;;;55.70;3.08;;;;;;;;;;5090060;28;20216;-69
2023/12/08 02:59:44;;;;;;;55.78;2.65;;;;;;;;;;5090832;28;20240;-69
2023/12/08 03:02:11;;;;;;;56.05;3.00;;;;;;;;;;5090584;28;20301;-69
2023/12/08 03:04:38;;;;;;;55.80;2.40;;;;;;;;;;5089943;28;20203;-69
2023/12/08 03:07:05;;;;;;;56.88;3.42;;;;;;;;;;5090539;28;20596;-69
2023/12/08 03:09:32;;;;;;;56.20;2.95;;;;;;;;;;5090264;28;20225;-69
2023/12/08 03:12:00;;;;;;;55.90;2.50;;;;;;;;;;5090489;28;20215;-69
2023/12/08 03:14:27;;;;;;;55.70;2.90;;;;;;;;;;5090648;28;20207;-69
2023/12/08 03:16:55;;;;;;;55.95;2.85;;;;;;;;;;5090506;28;20215;-69
2023/12/08 03:19:22;;;;;;;57.85;3.60;;;;;;;;;;5090593;28;20202;-69
2023/12/08 03:21:49;;;;;;;56.20;3.00;;;;;;;;;;5093869;28;20655;-69
2023/12/08 03:24:16;;;;;;;56.10;2.85;;;;;;;;;;5094121;28;20202;-69
2023/12/08 03:26:44;;;;;;;55.85;2.85;;;;;;;;;;5094158;28;20202;-69
2023/12/08 03:29:15;;;;;;;56.08;2.85;;;;;;;;;;5094017;28;20218;-69
2023/12/08 03:31:42;;;;;;;55.78;2.75;;;;;;;;;;5093939;28;20283;-69
2023/12/08 03:34:10;;;;;;;55.88;2.50;;;;;;;;;;5093937;28;20605;-69
2023/12/08 03:36:38;;;;;;;55.80;2.70;;;;;;;;;;5093484;28;20226;-70
2023/12/08 03:39:05;;;;;;;56.10;3.20;;;;;;;;;;5093746;28;20483;-69
2023/12/08 03:41:32;;;;;;;56.13;2.95;;;;;;;;;;5093717;28;20202;-70
2023/12/08 03:43:59;;;;;;;56.15;3.10;;;;;;;;;;5093336;28;20697;-70
2023/12/08 03:46:26;;;;;;;56.40;3.40;;;;;;;;;;5093455;28;20202;-70
2023/12/08 03:48:53;;;;;;;56.00;2.70;;;;;;;;;;5093482;28;20219;-69
2023/12/08 03:51:22;;;;;;;55.97;2.83;;;;;;;;;;5093235;28;20201;-70
2023/12/08 03:53:49;;;;;;;58.35;3.13;;;;;;;;;;5093806;28;20250;-70
2023/12/08 03:56:16;;;;;;;57.63;3.30;;;;;;;;;;5093449;28;20212;-69
2023/12/08 03:58:43;;;;;;;55.70;2.70;;;;;;;;;;5093400;28;20670;-69
2023/12/08 04:01:10;;;;;;;55.80;2.70;;;;;;;;;;5093368;28;20458;-69
2023/12/08 04:03:40;;;;;;;55.80;2.80;;;;;;;;;;5093252;28;20226;-69
2023/12/08 04:06:07;;;;;;;56.28;3.03;;;;;;;;;;5092892;28;20211;-69
2023/12/08 04:08:36;;;;;;;57.00;3.20;;;;;;;;;;5093171;28;20255;-69
2023/12/08 04:11:03;;;;;;;56.40;3.63;;;;;;;;;;5092919;28;20208;-70
2023/12/08 04:13:30;;;;;;;59.13;3.17;;;;;;;;;;5092917;28;20223;-70
2023/12/08 04:15:57;;;;;;;57.22;4.25;;;;;;;;;;5093010;28;20665;-70
2023/12/08 04:18:24;;;;;;;55.88;2.95;;;;;;;;;;5092762;28;20738;-70
2023/12/08 04:20:52;;;;;;;55.97;2.97;;;;;;;;;;5093160;28;20199;-70
2023/12/08 04:23:19;;;;;;;56.10;2.80;;;;;;;;;;5092727;28;20222;-70
2023/12/08 04:25:47;;;;;;;56.10;3.20;;;;;;;;;;5092898;28;20213;-70
2023/12/08 04:28:14;;;;;;;56.78;2.78;;;;;;;;;;5092841;28;20395;-70
2023/12/08 04:30:41;;;;;;;56.45;3.13;;;;;;;;;;5092162;28;20213;-70
2023/12/08 04:33:09;;;;;;;56.22;3.60;;;;;;;;;;5091883;28;20715;-70
2023/12/08 04:35:36;;;;;;;55.65;2.80;;;;;;;;;;5092805;28;20353;-70
2023/12/08 04:38:04;;;;;;;55.88;2.40;;;;;;;;;;5092767;28;20209;-70
2023/12/08 04:40:31;;;;;;;56.00;3.10;;;;;;;;;;5092646;28;20206;-70
2023/12/08 04:43:00;;;;;;;56.55;3.38;;;;;;;;;;5092399;28;20226;-70
2023/12/08 04:45:27;;;;;;;56.47;2.90;;;;;;;;;;5092350;28;20197;-70
2023/12/08 04:47:54;;;;;;;55.80;2.30;;;;;;;;;;5092741;28;20209;-70
2023/12/08 04:50:21;;;;;;;56.00;3.00;;;;;;;;;;5092489;28;20247;-70
2023/12/08 04:52:48;;;;;;;56.20;3.10;;;;;;;;;;5092336;28;20225;-70
2023/12/08 04:55:15;;;;;;;55.90;3.05;;;;;;;;;;5092230;28;20201;-70
2023/12/08 04:57:42;;;;;;;55.80;2.72;;;;;;;;;;5092163;28;20201;-70
2023/12/08 05:00:11;;;;;;;56.13;3.13;;;;;;;;;;5092197;28;20213;-70
2023/12/08 05:02:38;;;;;;;55.85;2.63;;;;;;;;;;5091709;28;20250;-70
2023/12/08 05:05:06;;;;;;;56.20;2.88;;;;;;;;;;5092117;28;20206;-70
2023/12/08 05:07:33;;;;;;;56.67;4.57;;;;;;;;;;5092115;28;20209;-70
2023/12/08 05:10:00;;;;;;;55.70;2.30;;;;;;;;;;5092098;28;20231;-70
2023/12/08 05:12:27;;;;;;;55.67;2.30;;;;;;;;;;5092136;28;20749;-70
2023/12/08 05:14:54;;;;;;;56.08;2.95;;;;;;;;;;5091876;28;20205;-70
2023/12/08 05:17:23;;;;;;;56.20;2.80;;;;;;;;;;5092046;28;20213;-70
2023/12/08 05:19:50;;;;;;;55.97;2.50;;;;;;;;;;5092354;28;20203;-70
2023/12/08 05:22:17;;;;;;;57.20;4.40;;;;;;;;;;5091598;28;20226;-70
2023/12/08 05:24:44;;;;;;;55.80;2.65;;;;;;;;;;5091680;28;20205;-70
2023/12/08 05:27:11;;;;;;;56.10;3.00;;;;;;;;;;5091802;28;20209;-70
2023/12/08 05:29:38;;;;;;;55.85;2.78;;;;;;;;;;5091993;28;20595;-70
2023/12/08 05:32:06;;;;;;;56.00;3.00;;;;;;;;;;5091889;28;20226;-70
2023/12/08 05:34:34;;;;;;;56.17;2.97;;;;;;;;;;5091532;28;20297;-71
2023/12/08 05:37:01;;;;;;;56.30;3.20;;;;;;;;;;5091921;28;20297;-71
2023/12/08 05:39:28;;;;;;;56.08;2.80;;;;;;;;;;5091483;28;20194;-71
2023/12/08 05:41:55;;;;;;;56.20;2.65;;;;;;;;;;5091206;28;20210;-71
2023/12/08 05:44:22;;;;;;;56.40;2.92;;;;;;;;;;5091326;28;20231;-71
2023/12/08 05:46:51;;;;;;;55.60;2.38;;;;;;;;;;5091703;28;20202;-72
2023/12/08 05:49:18;;;;;;;56.00;2.60;;;;;;;;;;5091428;28;20221;-71
2023/12/08 05:51:46;;;;;;;56.00;2.70;;;;;;;;;;5091073;28;20201;-71
2023/12/08 05:54:14;;;;;;;56.60;3.55;;;;;;;;;;5091298;28;20198;-72
2023/12/08 05:56:40;;;;;;;55.88;3.00;;;;;;;;;;5091235;28;20204;-71
2023/12/08 05:59:07;;;;;;;56.58;3.03;;;;;;;;;;5091146;28;20677;-69
2023/12/08 06:01:34;;;;;;;55.90;2.70;;;;;;;;;;5091076;28;20681;-69
2023/12/08 06:04:01;;;;;;;56.10;3.00;;;;;;;;;;5091284;28;20221;-71
2023/12/08 06:06:28;;;;;;;57.50;3.60;;;;;;;;;;5091008;28;20209;-71
2023/12/08 06:08:57;;;;;;;55.90;2.70;;;;;;;;;;5090954;28;20225;-70
2023/12/08 06:11:23;;;;;;;58.53;4.55;;;;;;;;;;5090917;28;20662;-71
2023/12/08 06:13:50;;;;;;;56.00;2.80;;;;;;;;;;5090957;28;20690;-71
2023/12/08 06:16:17;;;;;;;55.97;2.92;;;;;;;;;;5090999;28;20586;-70
2023/12/08 06:18:45;;;;;;;56.88;4.28;;;;;;;;;;5091095;28;20210;-71
2023/12/08 06:21:12;;;;;;;55.88;2.85;;;;;;;;;;5090847;28;20209;-71
2023/12/08 06:23:39;;;;;;;55.75;3.00;;;;;;;;;;5090986;28;20651;-71
2023/12/08 06:26:08;;;;;;;55.92;2.90;;;;;;;;;;5090550;28;20205;-71
2023/12/08 06:28:35;;;;;;;56.20;3.05;;;;;;;;;;5090985;28;20644;-71
2023/12/08 06:31:02;;;;;;;56.38;3.17;;;;;;;;;;5090953;28;20206;-71
2023/12/08 06:33:29;;;;;;;56.17;3.88;;;;;;;;;;5090855;28;20217;-70
2023/12/08 06:35:57;;;;;;;57.85;3.38;;;;;;;;;;5090961;28;20202;-71
2023/12/08 06:38:24;;;;;;;56.15;3.35;;;;;;;;;;5091150;28;20673;-71
2023/12/08 06:40:51;;;;;;;56.20;3.10;;;;;;;;;;5090912;28;20555;-71
2023/12/08 06:43:19;;;;;;;55.90;2.90;;;;;;;;;;5090993;28;20231;-71
2023/12/08 06:45:47;;;;;;;56.17;2.90;;;;;;;;;;5090540;28;20209;-71
2023/12/08 06:48:14;;;;;;;56.05;3.05;;;;;;;;;;5090359;28;20203;-71
2023/12/08 06:50:41;;;;;;;56.20;2.80;;;;;;;;;;5090663;28;20229;-71
2023/12/08 06:53:08;;;;;;;58.05;3.40;;;;;;;;;;5090461;28;20717;-72
2023/12/08 06:55:35;;;;;;;55.80;2.72;;;;;;;;;;5092938;28;20312;-70
2023/12/08 06:58:03;;;;;;;55.88;2.50;;;;;;;;;;5094659;28;20680;-71
2023/12/08 07:00:31;;;;;;;55.80;3.13;;;;;;;;;;5094759;28;20198;-71
2023/12/08 07:02:58;;;;;;;56.28;3.05;;;;;;;;;;5094343;28;20224;-71
2023/12/08 07:05:25;;;;;;;56.10;2.77;;;;;;;;;;5094222;28;20201;-71
2023/12/08 07:07:52;;;;;;;56.07;3.33;;;;;;;;;;5094401;28;20444;-71
2023/12/08 07:10:19;;;;;;;59.47;3.53;;;;;;;;;;5094223;28;20484;-72
2023/12/08 07:12:46;;;;;;;57.70;3.03;;;;;;;;;;5094056;28;20308;-71
2023/12/08 07:15:14;;;;;;;56.05;2.70;;;;;;;;;;5094519;28;20208;-72
2023/12/08 07:17:42;;;;;;;57.50;4.03;;;;;;;;;;5094949;28;20212;-72
2023/12/08 07:20:10;;;;;;;56.55;3.63;;;;;;;;;;5095344;28;20573;-72
2023/12/08 07:22:37;;;;;;;56.08;3.10;;;;;;;;;;5094530;28;20229;-72
2023/12/08 07:25:05;;;;;;;56.15;3.30;;;;;;;;;;5094967;28;20206;-71
2023/12/08 07:27:32;;;;;;;55.88;3.15;;;;;;;;;;5094005;28;20662;-72
2023/12/08 07:30:00;;;;;;;56.03;3.10;;;;;;;;;;5093858;28;20763;-73
2023/12/08 07:32:27;;;;;;;56.08;2.78;;;;;;;;;;5094400;28;20320;-72
2023/12/08 07:34:55;;;;;;;56.20;3.30;;;;;;;;;;5093928;28;20203;-72
2023/12/08 07:37:22;;;;;;;56.20;3.30;;;;;;;;;;5094248;28;20206;-72
2023/12/08 07:39:49;;;;;;;55.88;3.08;;;;;;;;;;5093902;28;20198;-73
2023/12/08 07:42:16;;;;;;;55.88;3.03;;;;;;;;;;5093396;28;20444;-73
2023/12/08 07:44:43;;;;;;;56.20;2.90;;;;;;;;;;5093676;28;20553;-73
2023/12/08 07:47:10;;;;;;;55.78;2.80;;;;;;;;;;5093901;28;20210;-72
2023/12/08 07:49:37;;;;;;;56.00;3.07;;;;;;;;;;5093522;28;20252;-73
2023/12/08 07:52:06;;;;;;;56.20;3.33;;;;;;;;;;5093543;28;20451;-71
2023/12/08 07:54:33;;;;;;;55.85;2.72;;;;;;;;;;5093405;28;20589;-73
2023/12/08 07:57:00;;;;;;;56.17;2.95;;;;;;;;;;5093754;28;20234;-73
2023/12/08 07:59:27;;;;;;;55.77;2.93;;;;;;;;;;5093434;28;20202;-72
2023/12/08 08:01:54;;;;;;;56.10;2.80;;;;;;;;;;5093276;28;20444;-73
2023/12/08 08:04:21;;;;;;;55.97;2.97;;;;;;;;;;5093463;28;20206;-73
2023/12/08 08:06:48;;;;;;;58.22;4.07;;;;;;;;;;5093129;28;20206;-73
2023/12/08 08:09:17;;;;;;;55.97;2.80;;;;;;;;;;5093235;28;20205;-73
2023/12/08 08:11:45;;;;;;;55.87;2.77;;;;;;;;;;5092930;28;20264;-74
2023/12/08 08:14:12;;;;;;;56.75;3.55;;;;;;;;;;5092769;28;20936;-73
2023/12/08 08:16:39;;;;;;;56.55;3.70;;;;;;;;;;5092859;28;20232;-72
2023/12/08 08:19:06;;;;;;;55.92;3.28;;;;;;;;;;5093477;28;20198;-73
2023/12/08 08:21:33;;;;;;;56.30;3.15;;;;;;;;;;5093022;28;20582;-73
2023/12/08 08:24:00;;;;;;;59.70;4.35;;;;;;;;;;5093131;28;20250;-73
2023/12/08 08:26:29;;;;;;;55.90;2.78;;;;;;;;;;5093177;28;20215;-74
2023/12/08 08:28:56;;;;;;;56.60;3.42;;;;;;;;;;5092834;28;20201;-73
2023/12/08 08:31:23;;;;;;;57.85;5.20;;;;;;;;;;5092782;28;20598;-73
2023/12/08 08:33:50;;;;;;;60.77;5.20;;;;;;;;;;5092779;28;20248;-74
2023/12/08 08:36:17;;;;;;;56.10;3.10;;;;;;;;;;5092705;28;20455;-74
2023/12/08 08:38:44;;;;;;;56.78;4.00;;;;;;;;;;5092575;28;20207;-73
2023/12/08 08:41:11;;;;;;;56.58;3.72;;;;;;;;;;5092665;28;20201;-73
2023/12/08 08:43:40;;;;;;;55.90;3.20;;;;;;;;;;5092582;28;20267;-73
2023/12/08 08:46:07;;;;;;;55.95;3.10;;;;;;;;;;5092457;28;20824;-73
2023/12/08 08:48:34;;;;;;;56.38;3.40;;;;;;;;;;5092506;28;20228;-72
2023/12/08 08:51:01;;;;;;;56.00;3.07;;;;;;;;;;5092435;28;20222;-73
2023/12/08 08:53:29;;;;;;;57.22;3.10;;;;;;;;;;5092315;28;20463;-73
2023/12/08 08:55:56;;;;;;;56.10;3.03;;;;;;;;;;5092020;28;20207;-72
2023/12/08 08:58:24;;;;;;;55.90;2.72;;;;;;;;;;5092402;28;20456;-72
2023/12/08 09:00:52;;;;;;;56.10;3.13;;;;;;;;;;5092495;28;20217;-73
2023/12/08 09:03:19;;;;;;;56.10;2.83;;;;;;;;;;5092032;28;20468;-72
2023/12/08 09:05:47;;;;;;;56.50;3.50;;;;;;;;;;5091902;28;20214;-73
2023/12/08 09:08:14;;;;;;;58.30;4.53;;;;;;;;;;5092402;28;20456;-73
2023/12/08 09:10:45;;;;;;;55.90;3.00;;;;;;;;;;5092035;28;21014;-73
2023/12/08 09:13:12;;;;;;;56.27;3.60;;;;;;;;;;5092159;28;20229;-73
2023/12/08 09:15:39;;;;;;;55.90;2.80;;;;;;;;;;5092004;28;20463;-73
2023/12/08 09:18:08;;;;;;;56.17;3.13;;;;;;;;;;5091355;28;20452;-73
2023/12/08 09:20:37;;;;;;;55.77;3.10;;;;;;;;;;5091766;28;20444;-73
2023/12/08 09:23:04;;;;;;;56.20;3.37;;;;;;;;;;5091744;28;20473;-72
2023/12/08 09:25:31;;;;;;;58.50;3.97;;;;;;;;;;5091692;28;20452;-73
2023/12/08 09:27:58;;;;;;;56.25;3.15;;;;;;;;;;5091923;28;20447;-73
2023/12/08 09:30:27;;;;;;;55.83;3.10;;;;;;;;;;5091804;28;20550;-73
2023/12/08 09:32:54;;;;;;;56.57;4.37;;;;;;;;;;5091355;28;20472;-73
2023/12/08 09:35:23;;;;;;;56.10;3.05;;;;;;;;;;5091434;28;20444;-72
2023/12/08 09:37:50;;;;;;;59.27;3.50;;;;;;;;;;5091956;28;20210;-73
2023/12/08 09:40:17;;;;;;;59.40;4.20;;;;;;;;;;5091504;28;20449;-72
2023/12/08 09:42:47;;;;;;;56.43;3.50;;;;;;;;;;5091766;28;20475;-73
2023/12/08 09:45:14;;;;;;;55.97;2.90;;;;;;;;;;5091518;28;20445;-73
2023/12/08 09:47:42;;;;;;;56.15;3.30;;;;;;;;;;5091354;28;20453;-72
2023/12/08 09:50:10;;;;;;;56.40;4.17;;;;;;;;;;5091499;28;20728;-71
2023/12/08 09:52:39;;;;;;;56.08;3.20;;;;;;;;;;5091292;28;20467;-72
2023/12/08 09:55:07;;;;;;;56.07;3.17;;;;;;;;;;5091424;28;20208;-72
2023/12/08 09:57:35;;;;;;;56.47;3.42;;;;;;;;;;5091805;28;20823;-73
2023/12/08 10:00:05;;;;;;;56.15;3.28;;;;;;;;;;5091925;28;20205;-72
2023/12/08 10:02:32;;;;;;;57.00;3.50;;;;;;;;;;5091478;28;20655;-73
2023/12/08 10:04:59;;;;;;;56.67;3.50;;;;;;;;;;5091463;28;20448;-73
2023/12/08 10:07:27;;;;;;;56.10;3.30;;;;;;;;;;5091338;28;20296;-73
2023/12/08 10:09:56;;;;;;;56.08;3.05;;;;;;;;;;5090835;28;20453;-72
2023/12/08 10:12:23;;;;;;;56.70;3.43;;;;;;;;;;5091101;28;20373;-73
2023/12/08 10:14:51;;;;;;;56.10;3.20;;;;;;;;;;5090951;28;20552;-72
2023/12/08 10:17:18;;;;;;;56.20;3.37;;;;;;;;;;5091115;28;20463;-73
2023/12/08 10:19:45;;;;;;;56.38;3.45;;;;;;;;;;5091234;28;20452;-71
2023/12/08 10:22:12;;;;;;;57.80;3.23;;;;;;;;;;5091145;28;20226;-72
2023/12/08 10:24:40;;;;;;;56.33;3.40;;;;;;;;;;5090956;28;20445;-72
2023/12/08 10:27:09;;;;;;;55.77;2.80;;;;;;;;;;5090968;28;20452;-73
2023/12/08 10:29:36;;;;;;;56.47;3.57;;;;;;;;;;5091854;28;20452;-72
2023/12/08 10:32:04;;;;;;;56.07;2.90;;;;;;;;;;5086932;28;20937;-72
2023/12/08 10:34:32;;;;;;;55.90;2.47;;;;;;;;;;5095198;28;20821;-71
2023/12/08 10:37:00;;;;;;;55.73;2.60;;;;;;;;;;5094860;28;20454;-72
2023/12/08 10:39:27;;;;;;;56.27;3.30;;;;;;;;;;5095059;28;20475;-73
2023/12/08 10:41:55;;;;;;;56.00;3.20;;;;;;;;;;5094577;28;20444;-73
2023/12/08 10:44:24;;;;;;;55.83;2.83;;;;;;;;;;5095310;28;20861;-72
2023/12/08 10:46:51;;;;;;;56.30;3.57;;;;;;;;;;5094918;28;20454;-73
2023/12/08 10:49:19;;;;;;;56.00;2.70;;;;;;;;;;5095091;28;20458;-73
2023/12/08 10:51:46;;;;;;;56.60;3.70;;;;;;;;;;5094528;28;20514;-73
2023/12/08 10:54:14;;;;;;;56.00;3.20;;;;;;;;;;5094807;28;20538;-73
2023/12/08 10:56:42;;;;;;;55.90;2.73;;;;;;;;;;5094667;28;20870;-73
2023/12/08 10:59:11;;;;;;;60.27;3.53;;;;;;;;;;5095054;28;20452;-73
2023/12/08 11:01:41;;;;;;;55.83;2.83;;;;;;;;;;5094895;28;20453;-72
2023/12/08 11:04:11;;;;;;;55.87;2.90;;;;;;;;;;5086758;28;20464;-73
2023/12/08 11:06:42;;;;;;;56.50;3.63;;;;;;;;;;5094350;28;20444;-73
2023/12/08 11:09:10;;;;;;;55.87;2.67;;;;;;;;;;5094599;28;20442;-73
2023/12/08 11:11:39;;;;;;;56.23;3.17;;;;;;;;;;5094379;28;20491;-73
2023/12/08 11:14:09;;;;;;;56.50;3.47;;;;;;;;;;5094508;28;20523;-72
2023/12/08 11:16:38;;;;;;;56.40;3.30;;;;;;;;;;5094289;28;20444;-73
2023/12/08 11:19:08;;;;;;;56.40;3.80;;;;;;;;;;5086147;28;20440;-73
2023/12/08 11:21:36;;;;;;;56.00;3.00;;;;;;;;;;5094247;28;20444;-73
2023/12/08 11:24:05;;;;;;;56.20;2.60;;;;;;;;;;5094399;28;20467;-73
2023/12/08 11:26:36;;;;;;;58.87;2.80;;;;;;;;;;5094240;28;20835;-72
2023/12/08 11:29:09;;;;;;;62.17;4.93;;;;;;;;;;5094052;28;20934;-73
2023/12/08 11:31:40;;;;;;;56.50;2.67;;;;;;;;;;5093951;28;20481;-73
2023/12/08 11:34:13;;;;;;;56.00;2.50;;;;;;;;;;5094298;28;20458;-73
2023/12/08 11:36:44;;;;;;;55.90;2.40;;;;;;;;;;5094030;28;20449;-73
2023/12/08 11:39:29;;;;;;;56.00;3.17;;;;;;;;;;5094279;28;20450;-73
2023/12/08 11:41:56;;;;;;;56.50;3.30;;;;;;;;;;5092810;28;20937;-73
2023/12/08 11:44:24;;;;;;;56.13;3.23;;;;;;;;;;5093627;28;20452;-73
2023/12/08 11:46:53;;;;;;;55.70;2.40;;;;;;;;;;5093616;28;20440;-73
2023/12/08 11:49:21;;;;;;;55.80;2.70;;;;;;;;;;5093846;28;20448;-74
2023/12/08 11:52:05;;;;;;;57.07;3.03;;;;;;;;;;5093403;28;20863;-73
2023/12/08 11:54:36;;;;;;;55.93;2.63;;;;;;;;;;5093764;28;20458;-73
2023/12/08 11:57:04;;;;;;;57.03;3.33;;;;;;;;;;5093630;28;20520;-73
2023/12/08 11:59:31;;;;;;;55.80;2.90;;;;;;;;;;5093782;28;20455;-74
2023/12/08 12:01:58;;;;;;;56.00;2.90;;;;;;;;;;5093201;28;20449;-73
2023/12/08 12:04:28;;;;;;;56.30;3.47;;;;;;;;;;5093444;28;20453;-71
2023/12/08 12:06:55;;;;;;;55.80;2.50;;;;;;;;;;5093612;28;20559;-73
2023/12/08 12:09:22;;;;;;;56.57;3.13;;;;;;;;;;5093882;28;20460;-72
2023/12/08 12:11:52;;;;;;;56.17;2.93;;;;;;;;;;5093664;28;20857;-72
2023/12/08 12:14:22;;;;;;;56.37;3.20;;;;;;;;;;5093533;28;20457;-73
2023/12/08 12:16:49;;;;;;;55.97;2.80;;;;;;;;;;5093414;28;20464;-72
2023/12/08 12:19:16;;;;;;;56.23;2.70;;;;;;;;;;5093156;28;20440;-73
2023/12/08 12:21:45;;;;;;;56.40;3.73;;;;;;;;;;5092707;28;20917;-72
2023/12/08 12:24:12;;;;;;;55.97;2.70;;;;;;;;;;5093543;28;20448;-73
2023/12/08 12:26:39;;;;;;;56.10;3.63;;;;;;;;;;5092765;28;20452;-74
2023/12/08 12:29:06;;;;;;;57.57;3.23;;;;;;;;;;5093014;28;20453;-73
2023/12/08 12:31:33;;;;;;;55.90;2.90;;;;;;;;;;5092573;28;20496;-73
2023/12/08 12:34:00;;;;;;;56.60;3.00;;;;;;;;;;5092893;28;20474;-72
2023/12/08 12:36:29;;;;;;;55.67;3.13;;;;;;;;;;5092246;28;20487;-73
2023/12/08 12:38:58;;;;;;;56.30;3.70;;;;;;;;;;5091997;28;20479;-72
2023/12/08 12:41:25;;;;;;;56.10;2.90;;;;;;;;;;5092690;28;20445;-73
2023/12/08 12:43:57;;;;;;;55.70;2.33;;;;;;;;;;5090867;28;20559;-72
2023/12/08 12:46:25;;;;;;;55.80;2.90;;;;;;;;;;5091590;28;20799;-72
2023/12/08 12:48:53;;;;;;;56.03;2.83;;;;;;;;;;5092144;28;20500;-72
2023/12/08 12:51:32;;;;;;;56.57;3.40;;;;;;;;;;5091547;28;20491;-72
2023/12/08 12:54:01;;;;;;;56.43;2.87;;;;;;;;;;5091222;28;20476;-72
2023/12/08 12:56:28;;;;;;;55.93;2.67;;;;;;;;;;5090915;28;20480;-72
2023/12/08 12:59:04;;;;;;;55.90;2.60;;;;;;;;;;5091152;28;20494;-72
2023/12/08 13:01:32;;;;;;;55.87;2.97;;;;;;;;;;5092187;28;20451;-73
2023/12/08 13:03:59;;;;;;;55.87;3.13;;;;;;;;;;5092399;28;20473;-72
2023/12/08 13:06:29;;;;;;;55.73;2.63;;;;;;;;;;5092017;28;20453;-72
2023/12/08 13:08:57;;;;;;;55.97;2.80;;;;;;;;;;5092478;28;20459;-72
2023/12/08 13:11:27;;;;;;;55.80;2.80;;;;;;;;;;5091940;28;20537;-71
2023/12/08 13:13:56;;;;;;;56.27;3.13;;;;;;;;;;5091858;28;20981;-72
2023/12/08 13:16:23;;;;;;;55.97;2.60;;;;;;;;;;5091948;28;20453;-72
2023/12/08 13:18:51;;;;;;;57.37;3.97;;;;;;;;;;5092192;28;20440;-72
2023/12/08 13:21:18;;;;;;;55.87;2.50;;;;;;;;;;5092353;28;20446;-72
2023/12/08 13:23:48;;;;;;;55.57;2.20;;;;;;;;;;5091977;28;20465;-72
2023/12/08 13:26:15;;;;;;;56.50;2.57;;;;;;;;;;5091651;28;20451;-71
2023/12/08 13:28:44;;;;;;;55.87;2.60;;;;;;;;;;5091744;28;20487;-72
2023/12/08 13:31:11;;;;;;;56.77;3.63;;;;;;;;;;5092002;28;20491;-72
2023/12/08 13:33:38;;;;;;;55.77;2.57;;;;;;;;;;5092002;28;20476;-72
2023/12/08 13:36:06;;;;;;;55.77;2.50;;;;;;;;;;5091548;28;20446;-71
2023/12/08 13:38:33;;;;;;;56.00;2.63;;;;;;;;;;5092065;28;20452;-72
2023/12/08 13:41:00;;;;;;;56.00;3.07;;;;;;;;;;5091335;28;21019;-72
2023/12/08 13:43:27;;;;;;;55.90;2.30;;;;;;;;;;5091596;28;20986;-72
2023/12/08 13:45:55;;;;;;;55.67;2.33;;;;;;;;;;5091371;28;20828;-71
2023/12/08 13:48:23;;;;;;;55.90;2.87;;;;;;;;;;5091553;28;20512;-72
2023/12/08 13:50:50;;;;;;;55.77;2.37;;;;;;;;;;5091625;28;20548;-71
2023/12/08 13:53:17;;;;;;;55.90;2.83;;;;;;;;;;5091259;28;20485;-72
2023/12/08 13:55:44;;;;;;;56.10;2.80;;;;;;;;;;5091245;28;20456;-71
2023/12/08 13:58:11;;;;;;;55.67;2.70;;;;;;;;;;5091615;28;20449;-72
2023/12/08 14:00:38;;;;;;;56.27;3.07;;;;;;;;;;5093585;28;20445;-72
2023/12/08 14:03:06;;;;;;;56.00;2.40;;;;;;;;;;5092869;28;20469;-72
2023/12/08 14:05:33;;;;;;;56.23;2.90;;;;;;;;;;5092803;28;20455;-72
2023/12/08 14:08:00;;;;;;;56.87;2.70;;;;;;;;;;5092678;28;20955;-72
2023/12/08 14:10:27;;;;;;;55.57;2.50;;;;;;;;;;5092372;28;20518;-72
2023/12/08 14:12:55;;;;;;;56.03;2.50;;;;;;;;;;5090976;28;20498;-73
2023/12/08 14:15:22;;;;;;;55.63;2.30;;;;;;;;;;5091261;28;20540;-73
2023/12/08 14:17:49;;;;;;;56.13;2.73;;;;;;;;;;5091163;28;20469;-72
2023/12/08 14:20:18;;;;;;;56.10;2.80;;;;;;;;;;5091136;28;20450;-72
2023/12/08 14:22:46;;;;;;;56.50;3.63;;;;;;;;;;5090849;28;20988;-72
2023/12/08 14:25:13;;;;;;;56.10;2.60;;;;;;;;;;5091011;28;20445;-72
2023/12/08 14:27:40;;;;;;;55.60;2.30;;;;;;;;;;5091373;28;20529;-71
2023/12/08 14:30:10;;;;;;;57.00;4.27;;;;;;;;;;5091063;28;20450;-71
2023/12/08 14:32:38;;;;;;;56.10;3.00;;;;;;;;;;5090699;28;20490;-72